sensor_id;sensor_type;location;lat;lon;timestamp;temperature;humidity
5392;DHT22;2719;53.624;9.786;2023-10-31T00:00:04;13.60;99.90
5392;DHT22;2719;53.624;9.786;2023-10-31T00:02:31;13.70;99.90
5392;DHT22;2719;53.624;9.786;2023-10-31T00:04:58;13.70;99.90
5392;DHT22;2719;53.624;9.786;2023-10-31T00:07:26;13.70;99.90
5392;DHT22;2719;53.624;9.786;2023-10-31T00:09:52;13.60;99.90
5392;DHT22;2719;53.624;9.786;2023-10-31T00:12:19;13.50;99.90
5392;DHT22;2719;53.624;9.786;2023-10-31T00:14:46;13.60;99.90
5392;DHT22;2719;53.624;9.786;2023-10-31T00:17:12;13.60;99.90
5392;DHT22;2719;53.624;9.786;2023-10-31T00:19:39;13.70;99.90
5392;DHT22;2719;53.624;9.786;2023-10-31T00:22:06;13.70;99.90
5392;DHT22;2719;53.624;9.786;2023-10-31T00:24:33;13.70;99.90
5392;DHT22;2719;53.624;9.786;2023-10-31T00:27:00;13.80;99.90
5392;DHT22;2719;53.624;9.786;2023-10-31T00:29:27;13.70;99.90
5392;DHT22;2719;53.624;9.786;2023-10-31T00:31:53;13.70;99.90
5392;DHT22;2719;53.624;9.786;2023-10-31T00:34:20;13.70;99.90
5392;DHT22;2719;53.624;9.786;2023-10-31T00:36:47;13.80;99.90
5392;DHT22;2719;53.624;9.786;2023-10-31T00:39:13;13.80;99.90
5392;DHT22;2719;53.624;9.786;2023-10-31T00:41:43;13.70;99.90
5392;DHT22;2719;53.624;9.786;2023-10-31T00:44:11;13.80;99.90
5392;DHT22;2719;53.624;9.786;2023-10-31T00:46:37;13.70;99.90
5392;DHT22;2719;53.624;9.786;2023-10-31T00:49:04;13.70;99.90
5392;DHT22;2719;53.624;9.786;2023-10-31T00:51:30;13.80;99.90
5392;DHT22;2719;53.624;9.786;2023-10-31T00:53:57;13.70;99.90
5392;DHT22;2719;53.624;9.786;2023-10-31T00:56:24;13.70;99.90
5392;DHT22;2719;53.624;9.786;2023-10-31T00:58:52;13.70;99.90
5392;DHT22;2719;53.624;9.786;2023-10-31T01:01:18;13.60;99.90
5392;DHT22;2719;53.624;9.786;2023-10-31T01:03:45;13.70;99.90
5392;DHT22;2719;53.624;9.786;2023-10-31T01:06:11;13.60;99.90
5392;DHT22;2719;53.624;9.786;2023-10-31T01:08:38;13.60;99.90
5392;DHT22;2719;53.624;9.786;2023-10-31T01:11:05;13.60;99.90
5392;DHT22;2719;53.624;9.786;2023-10-31T01:13:31;13.60;99.90
5392;DHT22;2719;53.624;9.786;2023-10-31T01:15:59;13.60;99.90
5392;DHT22;2719;53.624;9.786;2023-10-31T01:18:26;13.60;99.90
5392;DHT22;2719;53.624;9.786;2023-10-31T01:20:53;13.70;99.90
5392;DHT22;2719;53.624;9.786;2023-10-31T01:23:19;13.60;99.90
5392;DHT22;2719;53.624;9.786;2023-10-31T01:25:46;13.60;99.90
5392;DHT22;2719;53.624;9.786;2023-10-31T01:28:13;13.60;99.90
5392;DHT22;2719;53.624;9.786;2023-10-31T01:30:39;13.60;99.90
5392;DHT22;2719;53.624;9.786;2023-10-31T01:33:07;13.60;99.90
5392;DHT22;2719;53.624;9.786;2023-10-31T01:35:34;13.60;99.90
5392;DHT22;2719;53.624;9.786;2023-10-31T01:38:00;13.60;99.90
5392;DHT22;2719;53.624;9.786;2023-10-31T01:40:27;13.60;99.90
5392;DHT22;2719;53.624;9.786;2023-10-31T01:42:54;13.50;99.90
5392;DHT22;2719;53.624;9.786;2023-10-31T01:45:21;13.50;99.90
5392;DHT22;2719;53.624;9.786;2023-10-31T01:47:48;13.50;99.90
5392;DHT22;2719;53.624;9.786;2023-10-31T01:50:17;13.50;99.90
5392;DHT22;2719;53.624;9.786;2023-10-31T01:52:44;13.60;99.90
5392;DHT22;2719;53.624;9.786;2023-10-31T01:55:11;13.60;99.90
5392;DHT22;2719;53.624;9.786;2023-10-31T01:57:38;13.60;99.90
5392;DHT22;2719;53.624;9.786;2023-10-31T02:00:05;13.60;99.90
5392;DHT22;2719;53.624;9.786;2023-10-31T02:02:33;13.60;99.90
5392;DHT22;2719;53.624;9.786;2023-10-31T02:05:00;13.60;99.90
5392;DHT22;2719;53.624;9.786;2023-10-31T02:07:28;13.60;99.90
5392;DHT22;2719;53.624;9.786;2023-10-31T02:09:55;13.60;99.90
5392;DHT22;2719;53.624;9.786;2023-10-31T02:12:31;13.70;99.90
5392;DHT22;2719;53.624;9.786;2023-10-31T02:14:59;13.70;99.90
5392;DHT22;2719;53.624;9.786;2023-10-31T02:17:25;13.70;99.90
5392;DHT22;2719;53.624;9.786;2023-10-31T02:19:52;13.70;99.90
5392;DHT22;2719;53.624;9.786;2023-10-31T02:22:20;13.70;99.90
5392;DHT22;2719;53.624;9.786;2023-10-31T02:24:47;13.60;99.90
5392;DHT22;2719;53.624;9.786;2023-10-31T02:27:13;13.70;99.90
5392;DHT22;2719;53.624;9.786;2023-10-31T02:29:40;13.70;99.90
5392;DHT22;2719;53.624;9.786;2023-10-31T02:32:06;13.70;99.90
5392;DHT22;2719;53.624;9.786;2023-10-31T02:34:33;13.60;99.90
5392;DHT22;2719;53.624;9.786;2023-10-31T02:37:00;13.60;99.90
5392;DHT22;2719;53.624;9.786;2023-10-31T02:39:28;13.70;99.90
5392;DHT22;2719;53.624;9.786;2023-10-31T02:41:54;13.70;99.90
5392;DHT22;2719;53.624;9.786;2023-10-31T02:44:21;13.70;99.90
5392;DHT22;2719;53.624;9.786;2023-10-31T02:46:48;13.70;99.90
5392;DHT22;2719;53.624;9.786;2023-10-31T02:49:14;13.70;99.90
5392;DHT22;2719;53.624;9.786;2023-10-31T02:51:41;13.70;99.90
5392;DHT22;2719;53.624;9.786;2023-10-31T02:54:08;13.80;99.90
5392;DHT22;2719;53.624;9.786;2023-10-31T02:56:35;13.70;99.90
5392;DHT22;2719;53.624;9.786;2023-10-31T02:59:02;13.70;99.90
5392;DHT22;2719;53.624;9.786;2023-10-31T03:01:29;13.70;99.90
5392;DHT22;2719;53.624;9.786;2023-10-31T03:03:56;13.80;99.90
5392;DHT22;2719;53.624;9.786;2023-10-31T03:06:22;13.80;99.90
5392;DHT22;2719;53.624;9.786;2023-10-31T03:08:49;13.80;99.90
5392;DHT22;2719;53.624;9.786;2023-10-31T03:11:22;13.70;99.90
5392;DHT22;2719;53.624;9.786;2023-10-31T03:13:50;13.70;99.90
5392;DHT22;2719;53.624;9.786;2023-10-31T03:16:17;13.80;99.90
5392;DHT22;2719;53.624;9.786;2023-10-31T03:18:45;13.80;99.90
5392;DHT22;2719;53.624;9.786;2023-10-31T03:21:12;13.70;99.90
5392;DHT22;2719;53.624;9.786;2023-10-31T03:23:38;13.70;99.90
5392;DHT22;2719;53.624;9.786;2023-10-31T03:26:05;13.70;99.90
5392;DHT22;2719;53.624;9.786;2023-10-31T03:28:32;13.60;99.90
5392;DHT22;2719;53.624;9.786;2023-10-31T03:30:59;13.60;99.90
5392;DHT22;2719;53.624;9.786;2023-10-31T03:33:26;13.60;99.90
5392;DHT22;2719;53.624;9.786;2023-10-31T03:35:53;13.60;99.90
5392;DHT22;2719;53.624;9.786;2023-10-31T03:38:19;13.60;99.90
5392;DHT22;2719;53.624;9.786;2023-10-31T03:40:46;13.60;99.90
5392;DHT22;2719;53.624;9.786;2023-10-31T03:43:13;13.60;99.90
5392;DHT22;2719;53.624;9.786;2023-10-31T03:45:40;13.50;99.90
5392;DHT22;2719;53.624;9.786;2023-10-31T03:48:08;13.60;99.90
5392;DHT22;2719;53.624;9.786;2023-10-31T03:50:34;13.50;99.90
5392;DHT22;2719;53.624;9.786;2023-10-31T03:53:01;13.40;99.90
5392;DHT22;2719;53.624;9.786;2023-10-31T03:55:28;13.40;99.90
5392;DHT22;2719;53.624;9.786;2023-10-31T03:57:55;13.40;99.90
5392;DHT22;2719;53.624;9.786;2023-10-31T04:00:22;13.40;99.90
5392;DHT22;2719;53.624;9.786;2023-10-31T04:02:49;13.40;99.90
5392;DHT22;2719;53.624;9.786;2023-10-31T04:05:17;13.40;99.90
5392;DHT22;2719;53.624;9.786;2023-10-31T04:07:44;13.40;99.90
5392;DHT22;2719;53.624;9.786;2023-10-31T04:10:11;13.50;99.90
5392;DHT22;2719;53.624;9.786;2023-10-31T04:12:39;13.40;99.90
5392;DHT22;2719;53.624;9.786;2023-10-31T04:15:06;13.40;99.90
5392;DHT22;2719;53.624;9.786;2023-10-31T04:17:33;13.40;99.90
5392;DHT22;2719;53.624;9.786;2023-10-31T04:20:00;13.40;99.90
5392;DHT22;2719;53.624;9.786;2023-10-31T04:22:29;13.40;99.90
5392;DHT22;2719;53.624;9.786;2023-10-31T04:24:55;13.30;99.90
5392;DHT22;2719;53.624;9.786;2023-10-31T04:27:22;13.30;99.90
5392;DHT22;2719;53.624;9.786;2023-10-31T04:29:48;13.30;99.90
5392;DHT22;2719;53.624;9.786;2023-10-31T04:32:15;13.30;99.90
5392;DHT22;2719;53.624;9.786;2023-10-31T04:34:43;13.30;99.90
5392;DHT22;2719;53.624;9.786;2023-10-31T04:37:09;13.30;99.90
5392;DHT22;2719;53.624;9.786;2023-10-31T04:39:37;13.30;99.90
5392;DHT22;2719;53.624;9.786;2023-10-31T04:42:04;13.30;99.90
5392;DHT22;2719;53.624;9.786;2023-10-31T04:44:31;13.30;99.90
5392;DHT22;2719;53.624;9.786;2023-10-31T04:46:57;13.20;99.90
5392;DHT22;2719;53.624;9.786;2023-10-31T04:49:24;13.20;99.90
5392;DHT22;2719;53.624;9.786;2023-10-31T04:51:51;13.20;99.90
5392;DHT22;2719;53.624;9.786;2023-10-31T04:54:17;13.20;99.90
5392;DHT22;2719;53.624;9.786;2023-10-31T04:56:47;13.20;99.90
5392;DHT22;2719;53.624;9.786;2023-10-31T04:59:13;13.20;99.90
5392;DHT22;2719;53.624;9.786;2023-10-31T05:01:40;13.20;99.90
5392;DHT22;2719;53.624;9.786;2023-10-31T05:04:07;13.20;99.90
5392;DHT22;2719;53.624;9.786;2023-10-31T05:06:34;13.20;99.90
5392;DHT22;2719;53.624;9.786;2023-10-31T05:08:59;13.20;99.90
5392;DHT22;2719;53.624;9.786;2023-10-31T05:11:26;13.20;99.90
5392;DHT22;2719;53.624;9.786;2023-10-31T05:13:54;13.20;99.90
5392;DHT22;2719;53.624;9.786;2023-10-31T05:16:20;13.20;99.90
5392;DHT22;2719;53.624;9.786;2023-10-31T05:18:47;13.20;99.90
5392;DHT22;2719;53.624;9.786;2023-10-31T05:21:19;13.30;99.90
5392;DHT22;2719;53.624;9.786;2023-10-31T05:23:46;13.20;99.90
5392;DHT22;2719;53.624;9.786;2023-10-31T05:26:12;13.20;99.90
5392;DHT22;2719;53.624;9.786;2023-10-31T05:28:39;13.30;99.90
5392;DHT22;2719;53.624;9.786;2023-10-31T05:31:07;13.30;99.90
5392;DHT22;2719;53.624;9.786;2023-10-31T05:33:33;13.30;99.90
5392;DHT22;2719;53.624;9.786;2023-10-31T05:36:00;13.40;99.90
5392;DHT22;2719;53.624;9.786;2023-10-31T05:38:27;13.40;99.90
5392;DHT22;2719;53.624;9.786;2023-10-31T05:40:54;13.40;99.90
5392;DHT22;2719;53.624;9.786;2023-10-31T05:43:21;13.40;99.90
5392;DHT22;2719;53.624;9.786;2023-10-31T05:45:47;13.40;99.90
5392;DHT22;2719;53.624;9.786;2023-10-31T05:48:15;13.30;99.90
5392;DHT22;2719;53.624;9.786;2023-10-31T05:50:42;13.30;99.90
5392;DHT22;2719;53.624;9.786;2023-10-31T05:53:08;13.30;99.90
5392;DHT22;2719;53.624;9.786;2023-10-31T05:55:38;13.30;99.90
5392;DHT22;2719;53.624;9.786;2023-10-31T05:58:05;13.30;99.90
5392;DHT22;2719;53.624;9.786;2023-10-31T06:00:31;13.30;99.90
5392;DHT22;2719;53.624;9.786;2023-10-31T06:02:58;13.30;99.90
5392;DHT22;2719;53.624;9.786;2023-10-31T06:05:26;13.30;99.90
5392;DHT22;2719;53.624;9.786;2023-10-31T06:07:52;13.30;99.90
5392;DHT22;2719;53.624;9.786;2023-10-31T06:10:20;13.30;99.90
5392;DHT22;2719;53.624;9.786;2023-10-31T06:12:47;13.20;99.90
5392;DHT22;2719;53.624;9.786;2023-10-31T06:15:13;13.30;99.90
5392;DHT22;2719;53.624;9.786;2023-10-31T06:17:40;13.30;99.90
5392;DHT22;2719;53.624;9.786;2023-10-31T06:20:08;13.30;99.90
5392;DHT22;2719;53.624;9.786;2023-10-31T06:22:36;13.40;99.90
5392;DHT22;2719;53.624;9.786;2023-10-31T06:25:03;13.40;99.90
5392;DHT22;2719;53.624;9.786;2023-10-31T06:27:30;13.40;99.90
5392;DHT22;2719;53.624;9.786;2023-10-31T06:29:56;13.40;99.90
5392;DHT22;2719;53.624;9.786;2023-10-31T06:32:23;13.30;99.90
5392;DHT22;2719;53.624;9.786;2023-10-31T06:34:50;13.30;99.90
5392;DHT22;2719;53.624;9.786;2023-10-31T06:37:16;13.30;99.90
5392;DHT22;2719;53.624;9.786;2023-10-31T06:39:44;13.30;99.90
5392;DHT22;2719;53.624;9.786;2023-10-31T06:42:11;13.30;99.90
5392;DHT22;2719;53.624;9.786;2023-10-31T06:44:37;13.30;99.90
5392;DHT22;2719;53.624;9.786;2023-10-31T06:47:04;13.30;99.90
5392;DHT22;2719;53.624;9.786;2023-10-31T06:49:31;13.20;99.90
5392;DHT22;2719;53.624;9.786;2023-10-31T06:51:58;13.20;99.90
5392;DHT22;2719;53.624;9.786;2023-10-31T06:54:24;13.20;99.90
5392;DHT22;2719;53.624;9.786;2023-10-31T06:56:52;13.20;99.90
5392;DHT22;2719;53.624;9.786;2023-10-31T06:59:19;13.20;99.90
5392;DHT22;2719;53.624;9.786;2023-10-31T07:01:46;13.10;99.90
5392;DHT22;2719;53.624;9.786;2023-10-31T07:04:12;13.10;99.90
5392;DHT22;2719;53.624;9.786;2023-10-31T07:06:39;13.10;99.90
5392;DHT22;2719;53.624;9.786;2023-10-31T07:09:06;13.10;99.90
5392;DHT22;2719;53.624;9.786;2023-10-31T07:11:33;13.10;99.90
5392;DHT22;2719;53.624;9.786;2023-10-31T07:14:01;13.10;99.90
5392;DHT22;2719;53.624;9.786;2023-10-31T07:16:29;13.10;99.90
5392;DHT22;2719;53.624;9.786;2023-10-31T07:18:55;13.10;99.90
5392;DHT22;2719;53.624;9.786;2023-10-31T07:21:22;13.10;99.90
5392;DHT22;2719;53.624;9.786;2023-10-31T07:23:48;13.00;99.90
5392;DHT22;2719;53.624;9.786;2023-10-31T07:26:15;13.00;99.90
5392;DHT22;2719;53.624;9.786;2023-10-31T07:28:42;13.10;99.90
5392;DHT22;2719;53.624;9.786;2023-10-31T07:31:10;13.00;99.90
5392;DHT22;2719;53.624;9.786;2023-10-31T07:33:37;13.00;99.90
5392;DHT22;2719;53.624;9.786;2023-10-31T07:36:04;13.00;99.90
5392;DHT22;2719;53.624;9.786;2023-10-31T07:38:31;13.00;99.90
5392;DHT22;2719;53.624;9.786;2023-10-31T07:40:58;13.00;99.90
5392;DHT22;2719;53.624;9.786;2023-10-31T07:43:25;13.10;99.90
5392;DHT22;2719;53.624;9.786;2023-10-31T07:45:52;13.00;99.90
5392;DHT22;2719;53.624;9.786;2023-10-31T07:48:20;12.90;99.90
5392;DHT22;2719;53.624;9.786;2023-10-31T07:50:46;12.80;99.90
5392;DHT22;2719;53.624;9.786;2023-10-31T07:53:13;12.80;99.90
5392;DHT22;2719;53.624;9.786;2023-10-31T07:55:40;12.60;99.90
5392;DHT22;2719;53.624;9.786;2023-10-31T07:58:06;12.60;99.90
5392;DHT22;2719;53.624;9.786;2023-10-31T08:00:34;12.50;99.90
5392;DHT22;2719;53.624;9.786;2023-10-31T08:03:01;12.40;99.90
5392;DHT22;2719;53.624;9.786;2023-10-31T08:05:29;12.30;99.90
5392;DHT22;2719;53.624;9.786;2023-10-31T08:07:56;12.20;99.90
5392;DHT22;2719;53.624;9.786;2023-10-31T08:10:22;12.10;99.90
5392;DHT22;2719;53.624;9.786;2023-10-31T08:12:49;12.10;99.90
5392;DHT22;2719;53.624;9.786;2023-10-31T08:15:16;12.00;99.90
5392;DHT22;2719;53.624;9.786;2023-10-31T08:17:42;12.00;99.90
5392;DHT22;2719;53.624;9.786;2023-10-31T08:20:10;12.10;99.90
5392;DHT22;2719;53.624;9.786;2023-10-31T08:22:39;12.10;99.90
5392;DHT22;2719;53.624;9.786;2023-10-31T08:25:08;12.00;99.90
5392;DHT22;2719;53.624;9.786;2023-10-31T08:27:35;12.10;99.90
5392;DHT22;2719;53.624;9.786;2023-10-31T08:30:02;12.10;99.90
5392;DHT22;2719;53.624;9.786;2023-10-31T08:32:28;12.00;99.90
5392;DHT22;2719;53.624;9.786;2023-10-31T08:34:55;11.90;99.90
5392;DHT22;2719;53.624;9.786;2023-10-31T08:37:23;11.90;99.90
5392;DHT22;2719;53.624;9.786;2023-10-31T08:39:51;11.90;99.90
5392;DHT22;2719;53.624;9.786;2023-10-31T08:42:17;11.90;99.90
5392;DHT22;2719;53.624;9.786;2023-10-31T08:44:44;11.90;99.90
5392;DHT22;2719;53.624;9.786;2023-10-31T08:47:11;11.90;99.90
5392;DHT22;2719;53.624;9.786;2023-10-31T08:49:38;11.90;99.90
5392;DHT22;2719;53.624;9.786;2023-10-31T08:52:05;11.90;99.90
5392;DHT22;2719;53.624;9.786;2023-10-31T08:54:31;11.90;99.90
5392;DHT22;2719;53.624;9.786;2023-10-31T08:56:59;11.90;99.90
5392;DHT22;2719;53.624;9.786;2023-10-31T08:59:26;11.90;99.90
5392;DHT22;2719;53.624;9.786;2023-10-31T09:01:52;11.90;99.90
5392;DHT22;2719;53.624;9.786;2023-10-31T09:04:19;11.80;99.90
5392;DHT22;2719;53.624;9.786;2023-10-31T09:06:46;11.80;99.90
5392;DHT22;2719;53.624;9.786;2023-10-31T09:09:12;11.80;99.90
5392;DHT22;2719;53.624;9.786;2023-10-31T09:11:40;11.80;99.90
5392;DHT22;2719;53.624;9.786;2023-10-31T09:14:08;11.80;99.90
5392;DHT22;2719;53.624;9.786;2023-10-31T09:16:35;11.80;99.90
5392;DHT22;2719;53.624;9.786;2023-10-31T09:19:02;11.80;99.90
5392;DHT22;2719;53.624;9.786;2023-10-31T09:21:29;11.80;99.90
5392;DHT22;2719;53.624;9.786;2023-10-31T09:23:55;11.70;99.90
5392;DHT22;2719;53.624;9.786;2023-10-31T09:26:22;11.60;99.90
5392;DHT22;2719;53.624;9.786;2023-10-31T09:28:48;11.60;99.90
5392;DHT22;2719;53.624;9.786;2023-10-31T09:31:17;11.50;99.90
5392;DHT22;2719;53.624;9.786;2023-10-31T09:33:44;11.60;99.90
5392;DHT22;2719;53.624;9.786;2023-10-31T09:36:11;11.50;99.90
5392;DHT22;2719;53.624;9.786;2023-10-31T09:38:39;11.40;99.90
5392;DHT22;2719;53.624;9.786;2023-10-31T09:41:06;11.30;99.90
5392;DHT22;2719;53.624;9.786;2023-10-31T09:43:33;11.30;99.90
5392;DHT22;2719;53.624;9.786;2023-10-31T09:46:00;11.20;99.90
5392;DHT22;2719;53.624;9.786;2023-10-31T09:48:28;11.20;99.90
5392;DHT22;2719;53.624;9.786;2023-10-31T09:50:55;11.20;99.90
5392;DHT22;2719;53.624;9.786;2023-10-31T09:53:23;11.10;99.90
5392;DHT22;2719;53.624;9.786;2023-10-31T09:55:51;11.20;99.90
5392;DHT22;2719;53.624;9.786;2023-10-31T09:58:19;11.20;99.90
5392;DHT22;2719;53.624;9.786;2023-10-31T10:00:46;11.20;99.90
5392;DHT22;2719;53.624;9.786;2023-10-31T10:03:12;11.10;99.90
5392;DHT22;2719;53.624;9.786;2023-10-31T10:05:44;11.10;99.90
5392;DHT22;2719;53.624;9.786;2023-10-31T10:08:10;11.20;99.90
5392;DHT22;2719;53.624;9.786;2023-10-31T10:10:37;11.20;99.90
5392;DHT22;2719;53.624;9.786;2023-10-31T10:13:04;11.30;99.90
5392;DHT22;2719;53.624;9.786;2023-10-31T10:15:30;11.30;99.90
5392;DHT22;2719;53.624;9.786;2023-10-31T10:18:09;11.30;99.90
5392;DHT22;2719;53.624;9.786;2023-10-31T10:20:35;11.30;99.90
5392;DHT22;2719;53.624;9.786;2023-10-31T10:23:04;11.40;99.90
5392;DHT22;2719;53.624;9.786;2023-10-31T10:25:30;11.30;99.90
5392;DHT22;2719;53.624;9.786;2023-10-31T10:27:57;11.40;99.90
5392;DHT22;2719;53.624;9.786;2023-10-31T10:30:25;11.40;99.90
5392;DHT22;2719;53.624;9.786;2023-10-31T10:32:52;11.30;99.90
5392;DHT22;2719;53.624;9.786;2023-10-31T10:35:19;11.30;99.90
5392;DHT22;2719;53.624;9.786;2023-10-31T10:37:46;11.30;99.90
5392;DHT22;2719;53.624;9.786;2023-10-31T10:40:16;11.40;99.90
5392;DHT22;2719;53.624;9.786;2023-10-31T10:42:45;11.40;99.90
5392;DHT22;2719;53.624;9.786;2023-10-31T10:45:14;11.40;99.90
5392;DHT22;2719;53.624;9.786;2023-10-31T10:47:46;11.40;99.90
5392;DHT22;2719;53.624;9.786;2023-10-31T10:50:13;11.40;99.90
5392;DHT22;2719;53.624;9.786;2023-10-31T10:52:44;11.40;99.90
5392;DHT22;2719;53.624;9.786;2023-10-31T10:55:13;11.30;99.90
5392;DHT22;2719;53.624;9.786;2023-10-31T10:57:50;11.20;99.90
5392;DHT22;2719;53.624;9.786;2023-10-31T11:00:17;11.30;99.90
5392;DHT22;2719;53.624;9.786;2023-10-31T11:02:45;11.20;99.90
5392;DHT22;2719;53.624;9.786;2023-10-31T11:05:13;11.30;99.90
5392;DHT22;2719;53.624;9.786;2023-10-31T11:07:40;11.30;99.90
5392;DHT22;2719;53.624;9.786;2023-10-31T11:10:08;11.20;99.90
5392;DHT22;2719;53.624;9.786;2023-10-31T11:12:36;11.30;99.90
5392;DHT22;2719;53.624;9.786;2023-10-31T11:15:06;11.30;99.90
5392;DHT22;2719;53.624;9.786;2023-10-31T11:17:35;11.30;99.90
5392;DHT22;2719;53.624;9.786;2023-10-31T11:20:04;11.30;99.90
5392;DHT22;2719;53.624;9.786;2023-10-31T11:22:37;11.30;99.90
5392;DHT22;2719;53.624;9.786;2023-10-31T11:25:06;11.40;99.90
5392;DHT22;2719;53.624;9.786;2023-10-31T11:27:34;11.40;99.90
5392;DHT22;2719;53.624;9.786;2023-10-31T11:30:01;11.40;99.90
5392;DHT22;2719;53.624;9.786;2023-10-31T11:32:32;11.50;99.90
5392;DHT22;2719;53.624;9.786;2023-10-31T11:34:59;11.50;99.90
5392;DHT22;2719;53.624;9.786;2023-10-31T11:37:31;11.50;99.90
5392;DHT22;2719;53.624;9.786;2023-10-31T11:40:19;11.50;99.90
5392;DHT22;2719;53.624;9.786;2023-10-31T11:42:48;11.40;99.90
5392;DHT22;2719;53.624;9.786;2023-10-31T11:45:25;11.30;99.90
5392;DHT22;2719;53.624;9.786;2023-10-31T11:47:54;11.30;99.90
5392;DHT22;2719;53.624;9.786;2023-10-31T11:50:22;11.30;99.90
5392;DHT22;2719;53.624;9.786;2023-10-31T11:52:59;11.30;99.90
5392;DHT22;2719;53.624;9.786;2023-10-31T11:55:26;11.40;99.90
5392;DHT22;2719;53.624;9.786;2023-10-31T11:57:53;11.40;99.90
5392;DHT22;2719;53.624;9.786;2023-10-31T12:00:23;11.40;99.90
5392;DHT22;2719;53.624;9.786;2023-10-31T12:03:01;11.50;99.90
5392;DHT22;2719;53.624;9.786;2023-10-31T12:05:28;11.50;99.90
5392;DHT22;2719;53.624;9.786;2023-10-31T12:07:55;11.60;99.90
5392;DHT22;2719;53.624;9.786;2023-10-31T12:10:23;11.70;99.90
5392;DHT22;2719;53.624;9.786;2023-10-31T12:12:50;11.80;99.90
5392;DHT22;2719;53.624;9.786;2023-10-31T12:15:17;11.70;99.90
5392;DHT22;2719;53.624;9.786;2023-10-31T12:17:43;11.90;99.90
5392;DHT22;2719;53.624;9.786;2023-10-31T12:20:12;11.80;99.90
5392;DHT22;2719;53.624;9.786;2023-10-31T12:22:38;11.80;99.90
5392;DHT22;2719;53.624;9.786;2023-10-31T12:25:07;11.80;99.90
5392;DHT22;2719;53.624;9.786;2023-10-31T12:27:44;11.80;99.90
5392;DHT22;2719;53.624;9.786;2023-10-31T12:30:12;11.80;99.90
5392;DHT22;2719;53.624;9.786;2023-10-31T12:32:40;11.80;99.90
5392;DHT22;2719;53.624;9.786;2023-10-31T12:35:09;11.70;99.90
5392;DHT22;2719;53.624;9.786;2023-10-31T12:37:43;11.70;99.90
5392;DHT22;2719;53.624;9.786;2023-10-31T12:40:12;11.80;99.90
5392;DHT22;2719;53.624;9.786;2023-10-31T12:42:39;11.80;99.90
5392;DHT22;2719;53.624;9.786;2023-10-31T12:45:06;11.80;99.90
5392;DHT22;2719;53.624;9.786;2023-10-31T12:47:33;11.90;99.90
5392;DHT22;2719;53.624;9.786;2023-10-31T12:50:06;11.90;99.90
5392;DHT22;2719;53.624;9.786;2023-10-31T12:52:47;11.90;99.90
5392;DHT22;2719;53.624;9.786;2023-10-31T12:55:15;11.90;99.90
5392;DHT22;2719;53.624;9.786;2023-10-31T12:57:41;11.90;99.90
5392;DHT22;2719;53.624;9.786;2023-10-31T13:00:10;11.90;99.90
5392;DHT22;2719;53.624;9.786;2023-10-31T13:02:38;11.80;99.90
5392;DHT22;2719;53.624;9.786;2023-10-31T13:05:09;11.90;99.90
5392;DHT22;2719;53.624;9.786;2023-10-31T13:07:36;12.00;99.90
5392;DHT22;2719;53.624;9.786;2023-10-31T13:10:04;12.00;99.90
5392;DHT22;2719;53.624;9.786;2023-10-31T13:12:31;11.80;99.90
5392;DHT22;2719;53.624;9.786;2023-10-31T13:14:58;11.70;99.90
5392;DHT22;2719;53.624;9.786;2023-10-31T13:17:26;11.60;99.90
5392;DHT22;2719;53.624;9.786;2023-10-31T13:19:53;11.50;99.90
5392;DHT22;2719;53.624;9.786;2023-10-31T13:22:19;11.40;99.90
5392;DHT22;2719;53.624;9.786;2023-10-31T13:24:46;11.40;99.90
5392;DHT22;2719;53.624;9.786;2023-10-31T13:27:14;11.40;99.90
5392;DHT22;2719;53.624;9.786;2023-10-31T13:29:42;11.40;99.90
5392;DHT22;2719;53.624;9.786;2023-10-31T13:32:08;11.30;99.90
5392;DHT22;2719;53.624;9.786;2023-10-31T13:34:35;11.30;99.90
5392;DHT22;2719;53.624;9.786;2023-10-31T13:37:02;11.10;99.90
5392;DHT22;2719;53.624;9.786;2023-10-31T13:39:29;11.10;99.90
5392;DHT22;2719;53.624;9.786;2023-10-31T13:41:55;11.10;99.90
5392;DHT22;2719;53.624;9.786;2023-10-31T13:44:23;11.00;99.90
5392;DHT22;2719;53.624;9.786;2023-10-31T13:46:50;11.00;99.90
5392;DHT22;2719;53.624;9.786;2023-10-31T13:49:16;10.90;99.90
5392;DHT22;2719;53.624;9.786;2023-10-31T13:51:43;10.80;99.90
5392;DHT22;2719;53.624;9.786;2023-10-31T13:54:10;10.60;99.90
5392;DHT22;2719;53.624;9.786;2023-10-31T13:56:36;10.60;99.90
5392;DHT22;2719;53.624;9.786;2023-10-31T13:59:03;10.70;99.90
5392;DHT22;2719;53.624;9.786;2023-10-31T14:01:31;10.40;99.90
5392;DHT22;2719;53.624;9.786;2023-10-31T14:03:58;10.40;99.90
5392;DHT22;2719;53.624;9.786;2023-10-31T14:06:24;10.30;99.90
5392;DHT22;2719;53.624;9.786;2023-10-31T14:08:55;10.30;99.90
5392;DHT22;2719;53.624;9.786;2023-10-31T14:11:22;10.30;99.90
5392;DHT22;2719;53.624;9.786;2023-10-31T14:13:48;10.10;99.90
5392;DHT22;2719;53.624;9.786;2023-10-31T14:16:15;10.10;99.90
5392;DHT22;2719;53.624;9.786;2023-10-31T14:18:44;10.00;99.90
5392;DHT22;2719;53.624;9.786;2023-10-31T14:21:11;10.00;99.90
5392;DHT22;2719;53.624;9.786;2023-10-31T14:23:38;10.10;99.90
5392;DHT22;2719;53.624;9.786;2023-10-31T14:26:05;10.00;99.90
5392;DHT22;2719;53.624;9.786;2023-10-31T14:28:31;9.90;99.90
5392;DHT22;2719;53.624;9.786;2023-10-31T14:30:58;10.10;99.90
5392;DHT22;2719;53.624;9.786;2023-10-31T14:33:25;9.90;99.90
5392;DHT22;2719;53.624;9.786;2023-10-31T14:35:53;9.80;99.90
5392;DHT22;2719;53.624;9.786;2023-10-31T14:38:19;9.70;99.90
5392;DHT22;2719;53.624;9.786;2023-10-31T14:40:46;9.70;99.90
5392;DHT22;2719;53.624;9.786;2023-10-31T14:43:12;9.70;99.90
5392;DHT22;2719;53.624;9.786;2023-10-31T14:45:43;9.70;99.90
5392;DHT22;2719;53.624;9.786;2023-10-31T14:48:10;9.70;99.90
5392;DHT22;2719;53.624;9.786;2023-10-31T14:50:37;9.70;99.90
5392;DHT22;2719;53.624;9.786;2023-10-31T14:53:05;9.80;99.90
5392;DHT22;2719;53.624;9.786;2023-10-31T14:55:32;9.70;99.90
5392;DHT22;2719;53.624;9.786;2023-10-31T14:57:59;9.70;99.90
5392;DHT22;2719;53.624;9.786;2023-10-31T15:00:25;9.70;99.90
5392;DHT22;2719;53.624;9.786;2023-10-31T15:02:52;9.70;99.90
5392;DHT22;2719;53.624;9.786;2023-10-31T15:05:18;9.80;99.90
5392;DHT22;2719;53.624;9.786;2023-10-31T15:07:45;9.80;99.90
5392;DHT22;2719;53.624;9.786;2023-10-31T15:10:13;9.90;99.90
5392;DHT22;2719;53.624;9.786;2023-10-31T15:12:40;9.80;99.90
5392;DHT22;2719;53.624;9.786;2023-10-31T15:15:07;9.50;99.90
5392;DHT22;2719;53.624;9.786;2023-10-31T15:17:34;9.60;99.90
5392;DHT22;2719;53.624;9.786;2023-10-31T15:20:01;9.50;99.90
5392;DHT22;2719;53.624;9.786;2023-10-31T15:22:28;9.30;99.90
5392;DHT22;2719;53.624;9.786;2023-10-31T15:24:55;9.50;99.90
5392;DHT22;2719;53.624;9.786;2023-10-31T15:27:23;9.50;99.90
5392;DHT22;2719;53.624;9.786;2023-10-31T15:29:49;9.50;99.90
5392;DHT22;2719;53.624;9.786;2023-10-31T15:32:16;9.60;99.90
5392;DHT22;2719;53.624;9.786;2023-10-31T15:34:42;9.50;99.90
5392;DHT22;2719;53.624;9.786;2023-10-31T15:37:09;9.50;99.90
5392;DHT22;2719;53.624;9.786;2023-10-31T15:39:37;9.40;99.90
5392;DHT22;2719;53.624;9.786;2023-10-31T15:42:05;9.40;99.90
5392;DHT22;2719;53.624;9.786;2023-10-31T15:44:35;9.30;99.90
5392;DHT22;2719;53.624;9.786;2023-10-31T15:47:02;9.40;99.90
5392;DHT22;2719;53.624;9.786;2023-10-31T15:49:29;9.40;99.90
5392;DHT22;2719;53.624;9.786;2023-10-31T15:51:55;9.40;99.90
5392;DHT22;2719;53.624;9.786;2023-10-31T15:54:22;9.40;99.90
5392;DHT22;2719;53.624;9.786;2023-10-31T15:56:49;9.40;99.90
5392;DHT22;2719;53.624;9.786;2023-10-31T15:59:16;9.40;99.90
5392;DHT22;2719;53.624;9.786;2023-10-31T16:01:44;9.30;99.90